Time;durP1;ratioP1;P1;durP2;ratioP2;P2;SDS_P1;SDS_P2;PMS_P1;PMS_P2;Temp;Humidity;BMP_temperature;BMP_pressure;BME280_temperature;BME280_humidity;BME280_pressure;Samples;Min_cycle;Max_cycle;Signal;HPM_P1;HPM_P2
2024/01/06 00:00:30;;;;;;;12.32;7.65;;;;;;;4.10;100.00;100485.19;5015004;28;20042;-79
2024/01/06 00:02:56;;;;;;;12.27;7.60;;;;;;;4.07;100.00;100499.44;5016504;28;20041;-80
2024/01/06 00:05:21;;;;;;;11.20;7.07;;;;;;;3.62;100.00;100409.78;5026428;28;20450;-79
2024/01/06 00:07:47;;;;;;;11.48;6.70;;;;;;;4.16;100.00;100510.22;5025281;28;20030;-80
2024/01/06 00:10:12;;;;;;;12.45;6.53;;;;;;;4.00;100.00;100453.06;5032299;28;20407;-80
2024/01/06 00:12:38;;;;;;;12.98;7.22;;;;;;;4.35;100.00;100492.69;5033271;28;20504;-80
2024/01/06 00:15:04;;;;;;;13.43;7.93;;;;;;;4.13;100.00;100441.94;5034554;28;20034;-81
2024/01/06 00:17:29;;;;;;;15.55;7.80;;;;;;;4.37;100.00;100488.59;5043807;28;20033;-78
2024/01/06 00:19:55;;;;;;;14.82;7.85;;;;;;;3.85;100.00;100426.53;5040854;28;20026;-81
2024/01/06 00:22:20;;;;;;;13.07;8.07;;;;;;;3.66;100.00;100444.91;5033562;28;20033;-81
2024/01/06 00:24:46;;;;;;;14.52;7.40;;;;;;;3.74;100.00;100453.97;5033237;28;20554;-82
2024/01/06 00:27:13;;;;;;;12.68;7.72;;;;;;;3.88;100.00;100467.59;5033467;28;20044;-81
2024/01/06 00:29:38;;;;;;;13.77;8.27;;;;;;;4.11;100.00;100494.63;5031956;28;20056;-81
2024/01/06 00:32:05;;;;;;;13.75;6.88;;;;;;;3.86;100.00;100420.66;5033326;28;20025;-83
2024/01/06 00:34:30;;;;;;;13.82;7.43;;;;;;;4.40;100.00;100487.88;5033503;28;20030;-79
2024/01/06 00:36:56;;;;;;;15.23;7.88;;;;;;;4.50;100.00;100484.22;5032884;28;20100;-84
2024/01/06 00:39:21;;;;;;;12.55;7.18;;;;;;;4.41;100.00;100471.75;5033396;28;20509;-81
2024/01/06 00:41:47;;;;;;;13.23;7.75;;;;;;;4.21;100.00;100452.63;5033044;28;20087;-81
2024/01/06 00:44:12;;;;;;;14.07;7.53;;;;;;;4.43;100.00;100480.38;5033066;28;20483;-81
2024/01/06 00:46:39;;;;;;;14.10;7.97;;;;;;;4.41;100.00;100470.88;5032891;28;20400;-83
2024/01/06 00:49:05;;;;;;;12.05;7.53;;;;;;;4.47;100.00;100478.91;5033090;28;20033;-81
2024/01/06 00:51:30;;;;;;;13.75;7.50;;;;;;;4.54;100.00;100471.69;5032711;28;20029;-81
2024/01/06 00:53:56;;;;;;;14.05;8.10;;;;;;;4.04;100.00;100380.94;5033050;28;20030;-79
2024/01/06 00:56:22;;;;;;;16.58;8.90;;;;;;;4.54;100.00;100463.16;5032807;28;20029;-79
2024/01/06 00:58:47;;;;;;;14.85;7.72;;;;;;;4.05;100.00;100394.59;5033037;28;20040;-80
2024/01/06 01:01:13;;;;;;;13.55;8.10;;;;;;;4.61;100.00;100478.09;5032552;28;20483;-81
2024/01/06 01:03:38;;;;;;;11.00;7.25;;;;;;;4.43;100.00;100448.84;5033101;28;20040;-84
2024/01/06 01:06:04;;;;;;;13.15;7.93;;;;;;;4.40;100.00;100444.44;5032521;28;20032;-83
2024/01/06 01:08:30;;;;;;;13.75;8.00;;;;;;;4.53;100.00;100446.91;5032276;28;20033;-80
2024/01/06 01:10:56;;;;;;;15.23;8.18;;;;;;;4.32;100.00;100402.19;5032676;28;20060;-78
2024/01/06 01:13:22;;;;;;;13.25;8.30;;;;;;;4.52;100.00;100441.72;5032833;28;20042;-80
2024/01/06 01:15:48;;;;;;;12.13;7.35;;;;;;;4.20;100.00;100381.88;5032653;28;20384;-80
2024/01/06 01:18:14;;;;;;;15.65;8.07;;;;;;;4.44;100.00;100431.03;5029885;28;20036;-80
2024/01/06 01:20:42;;;;;;;16.35;8.20;;;;;;;4.30;100.00;100396.97;5031446;28;20061;-84
2024/01/06 01:23:08;;;;;;;16.65;8.15;;;;;;;4.68;100.00;100440.97;5025230;28;20063;-81
2024/01/06 01:25:34;;;;;;;12.48;7.72;;;;;;;4.85;100.00;100445.44;5023957;28;20109;-81
2024/01/06 01:27:59;;;;;;;11.52;7.00;;;;;;;4.79;100.00;100426.28;5027207;28;20028;-82
2024/01/06 01:30:25;;;;;;;12.90;7.95;;;;;;;4.92;100.00;100441.56;5031759;28;20025;-82
2024/01/06 01:32:51;;;;;;;13.13;7.53;;;;;;;5.10;100.00;100452.00;5031866;28;20024;-82
2024/01/06 01:35:16;;;;;;;11.55;6.93;;;;;;;4.77;100.00;100394.59;5032139;28;20021;-81
2024/01/06 01:37:42;;;;;;;13.20;6.97;;;;;;;4.67;100.00;100375.28;5032115;28;20538;-81
2024/01/06 01:40:08;;;;;;;11.80;6.57;;;;;;;5.01;100.00;100423.31;5032306;28;20049;-85
2024/01/06 01:42:34;;;;;;;11.15;7.18;;;;;;;4.92;100.00;100395.53;5031076;28;20363;-83
2024/01/06 01:44:59;;;;;;;11.55;7.03;;;;;;;5.18;100.00;100435.41;5031250;28;20033;-82
2024/01/06 01:47:25;;;;;;;14.85;7.45;;;;;;;4.77;100.00;100364.81;5032445;28;20025;-81
2024/01/06 01:49:54;;;;;;;13.43;7.28;;;;;;;5.10;100.00;100423.84;5032439;28;20722;-84
2024/01/06 01:52:19;;;;;;;15.18;7.63;;;;;;;4.26;100.00;100318.38;5032505;28;20092;-82
2024/01/06 01:54:46;;;;;;;14.07;7.38;;;;;;;4.41;100.00;100350.72;5032180;28;20517;-81
2024/01/06 01:57:13;;;;;;;13.25;6.85;;;;;;;4.66;100.00;100415.31;5031917;28;20036;-81
2024/01/06 01:59:39;;;;;;;10.95;6.60;;;;;;;4.65;100.00;100431.44;5031843;28;20041;-82
2024/01/06 02:02:06;;;;;;;14.00;7.35;;;;;;;4.60;100.00;100422.63;5032163;28;20038;-83
2024/01/06 02:04:31;;;;;;;11.00;6.72;;;;;;;4.34;100.00;100411.69;5031947;28;20412;-82
2024/01/06 02:06:57;;;;;;;10.70;6.75;;;;;;;4.22;100.00;100398.16;5032069;28;20032;-86
2024/01/06 02:09:26;;;;;;;11.00;7.03;;;;;;;3.53;100.00;100318.19;5031770;28;20036;-81
2024/01/06 02:11:52;;;;;;;14.02;7.63;;;;;;;3.86;100.00;100373.03;5031924;28;20033;-82
2024/01/06 02:14:18;;;;;;;12.30;7.25;;;;;;;3.92;100.00;100395.47;5031684;28;20033;-79
2024/01/06 02:16:43;;;;;;;11.18;6.88;;;;;;;3.78;100.00;100388.66;5031873;28;20053;-81
2024/01/06 02:19:12;;;;;;;12.55;6.43;;;;;;;3.63;100.00;100368.16;5031619;28;20030;-79
2024/01/06 02:21:42;;;;;;;11.73;6.57;;;;;;;3.22;100.00;100301.78;5031495;28;20555;-81
2024/01/06 02:24:07;;;;;;;;;;;;;;;3.71;100.00;100369.50;5032042;28;20034;-82
2024/01/06 02:26:33;;;;;;;10.50;6.30;;;;;;;3.51;100.00;100351.25;5031474;28;19920;-81
2024/01/06 02:28:58;;;;;;;10.85;6.93;;;;;;;3.63;100.00;100363.91;5031463;28;20057;-81
2024/01/06 02:31:24;;;;;;;12.05;6.70;;;;;;;3.54;100.00;100348.03;5031504;28;20025;-82
2024/01/06 02:33:49;;;;;;;12.48;7.00;;;;;;;3.73;100.00;100361.13;5031467;28;20029;-82
2024/01/06 02:36:15;;;;;;;11.55;6.78;;;;;;;3.86;100.00;100372.13;5031422;28;20037;-82
2024/01/06 02:38:40;;;;;;;10.52;6.50;;;;;;;4.02;100.00;100382.50;5031254;28;20089;-83
2024/01/06 02:41:06;;;;;;;10.05;6.47;;;;;;;3.86;100.00;100338.91;5030886;28;20138;-81
2024/01/06 02:43:31;;;;;;;11.30;6.45;;;;;;;4.10;100.00;100377.88;5031114;28;20025;-81
2024/01/06 02:45:57;;;;;;;11.75;6.00;;;;;;;4.22;100.00;100375.16;5031099;28;20025;-82
2024/01/06 02:48:22;;;;;;;10.65;6.20;;;;;;;4.05;100.00;100346.94;5031156;28;20112;-80
2024/01/06 02:50:48;;;;;;;9.32;5.70;;;;;;;3.76;100.00;100286.41;5031094;28;20029;-82
2024/01/06 02:53:13;;;;;;;13.38;6.43;;;;;;;4.08;100.00;100353.91;5031625;28;20036;-81
2024/01/06 02:55:39;;;;;;;12.90;7.00;;;;;;;4.20;100.00;100369.09;5030733;28;20060;-81
2024/01/06 02:58:05;;;;;;;11.57;6.03;;;;;;;4.03;100.00;100330.63;5031060;28;20041;-81
2024/01/06 03:00:30;;;;;;;13.00;5.95;;;;;;;4.35;100.00;100380.25;5030796;28;20107;-82
2024/01/06 03:02:55;;;;;;;11.90;6.07;;;;;;;4.44;100.00;100368.81;5030948;28;20068;-81
2024/01/06 03:05:21;;;;;;;9.88;5.47;;;;;;;4.48;100.00;100368.19;5030978;28;20025;-82
2024/01/06 03:07:46;;;;;;;11.32;6.38;;;;;;;4.18;100.00;100306.78;5030747;28;20026;-82
2024/01/06 03:10:12;;;;;;;10.20;6.00;;;;;;;4.56;100.00;100363.53;5030565;28;20026;-81
2024/01/06 03:12:37;;;;;;;11.18;5.93;;;;;;;4.60;100.00;100379.16;5030920;28;20029;-80
2024/01/06 03:15:03;;;;;;;9.38;5.93;;;;;;;4.41;100.00;100338.84;5031092;28;20052;-88
2024/01/06 03:17:29;;;;;;;9.43;6.03;;;;;;;4.43;100.00;100354.28;5029513;28;20146;-81
2024/01/06 03:19:54;;;;;;;12.77;7.40;;;;;;;4.44;100.00;100359.47;5011851;28;20041;-81
2024/01/06 03:22:20;;;;;;;11.77;6.45;;;;;;;4.33;100.00;100330.69;5030679;28;20021;-81
2024/01/06 03:24:45;;;;;;;9.93;5.63;;;;;;;4.33;100.00;100300.03;5030683;28;20026;-81
2024/01/06 03:27:12;;;;;;;8.85;5.70;;;;;;;4.56;100.00;100332.84;5030408;28;20407;-81
2024/01/06 03:29:38;;;;;;;11.02;6.13;;;;;;;4.04;100.00;100260.00;5030310;28;20022;-81
2024/01/06 03:32:03;;;;;;;10.95;5.78;;;;;;;4.65;100.00;100354.75;5029864;28;20470;-80
2024/01/06 03:34:29;;;;;;;10.57;5.72;;;;;;;4.75;100.00;100371.50;5030304;28;20030;-79
2024/01/06 03:36:54;;;;;;;10.95;5.85;;;;;;;4.38;100.00;100384.66;5030421;28;20057;-80
2024/01/06 03:39:20;;;;;;;10.65;6.13;;;;;;;4.26;100.00;100379.69;5030409;28;20424;-80
2024/01/06 03:41:45;;;;;;;11.32;6.00;;;;;;;4.03;100.00;100361.28;5030470;28;20040;-82
2024/01/06 03:44:11;;;;;;;12.57;6.00;;;;;;;3.95;100.00;100352.28;5030406;28;20419;-80
2024/01/06 03:46:37;;;;;;;9.93;5.75;;;;;;;4.11;100.00;100366.88;5030402;28;20034;-83
2024/01/06 03:49:03;;;;;;;10.25;6.03;;;;;;;4.11;100.00;100374.53;5030206;28;20026;-80
2024/01/06 03:51:29;;;;;;;15.68;7.78;;;;;;;3.93;100.00;100358.94;5030090;28;20109;-80
2024/01/06 03:53:54;;;;;;;13.82;8.65;;;;;;;4.13;100.00;100372.06;5030200;28;20087;-81
2024/01/06 03:56:20;;;;;;;12.98;8.90;;;;;;;4.19;100.00;100380.97;5030435;28;20034;-80
2024/01/06 03:58:46;;;;;;;11.88;7.03;;;;;;;3.84;100.00;100322.63;5030147;28;20113;-80
2024/01/06 04:01:11;;;;;;;9.50;6.22;;;;;;;4.15;100.00;100381.59;5030307;28;20044;-80
2024/01/06 04:03:40;;;;;;;12.95;6.40;;;;;;;4.08;100.00;100369.22;5030270;28;20083;-80
2024/01/06 04:06:06;;;;;;;9.73;6.25;;;;;;;4.04;100.00;100357.94;5029971;28;20472;-79
2024/01/06 04:08:31;;;;;;;11.50;5.93;;;;;;;4.16;100.00;100373.16;5029935;28;20064;-79
2024/01/06 04:10:57;;;;;;;11.25;6.22;;;;;;;4.01;100.00;100351.75;5030014;28;20063;-80
2024/01/06 04:13:24;;;;;;;13.70;6.20;;;;;;;3.92;100.00;100340.97;5028794;28;20033;-85
2024/01/06 04:15:50;;;;;;;12.98;6.05;;;;;;;4.19;100.00;100392.88;5029949;28;20029;-78
2024/01/06 04:18:16;;;;;;;9.88;6.07;;;;;;;4.14;100.00;100384.94;5029920;28;20021;-79
2024/01/06 04:20:41;;;;;;;10.43;5.82;;;;;;;4.04;100.00;100352.81;5029815;28;20030;-79
2024/01/06 04:23:07;;;;;;;10.18;6.07;;;;;;;4.14;100.00;100382.38;5030206;28;20037;-81
2024/01/06 04:25:32;;;;;;;10.07;6.07;;;;;;;4.03;100.00;100376.59;5030230;28;20038;-82
2024/01/06 04:27:58;;;;;;;12.05;6.85;;;;;;;3.95;100.00;100353.94;5015598;28;20030;-78
2024/01/06 04:30:25;;;;;;;11.88;6.03;;;;;;;4.14;100.00;100374.72;5012108;28;20507;-80
2024/01/06 04:32:50;;;;;;;11.40;6.50;;;;;;;3.79;100.00;100316.34;5029807;28;20029;-79
2024/01/06 04:35:16;;;;;;;15.18;7.32;;;;;;;4.08;100.00;100378.56;5023467;28;20523;-79
2024/01/06 04:37:41;;;;;;;13.98;6.82;;;;;;;4.01;100.00;100383.31;5010106;28;20045;-79
2024/01/06 04:40:07;;;;;;;11.57;6.50;;;;;;;3.87;100.00;100339.00;5010340;28;20257;-77
2024/01/06 04:42:33;;;;;;;11.70;7.05;;;;;;;4.08;100.00;100386.25;5009855;28;20471;-79
2024/01/06 04:44:59;;;;;;;11.73;6.82;;;;;;;3.86;100.00;100354.25;5013868;28;20038;-79
2024/01/06 04:47:24;;;;;;;11.73;7.00;;;;;;;4.00;100.00;100376.44;5013697;28;20482;-79
2024/01/06 04:49:50;;;;;;;12.73;6.72;;;;;;;3.80;100.00;100356.41;5013442;28;20048;-80
2024/01/06 04:52:16;;;;;;;12.60;6.57;;;;;;;3.95;100.00;100376.91;5013728;28;20535;-77
2024/01/06 04:54:41;;;;;;;12.52;6.38;;;;;;;3.83;100.00;100367.69;5013772;28;20057;-78
2024/01/06 04:57:07;;;;;;;13.57;7.78;;;;;;;4.05;100.00;100402.25;5013776;28;20030;-78
2024/01/06 04:59:32;;;;;;;14.45;7.45;;;;;;;4.07;100.00;100390.44;5013450;28;20038;-77
2024/01/06 05:01:58;;;;;;;14.13;7.82;;;;;;;3.63;100.00;100306.88;5013140;28;20488;-78
2024/01/06 05:04:24;;;;;;;16.63;9.15;;;;;;;3.97;100.00;100389.00;5013385;28;20026;-77
2024/01/06 05:06:51;;;;;;;17.75;9.25;;;;;;;3.89;100.00;100375.75;5013019;28;20550;-80
2024/01/06 05:09:17;;;;;;;19.00;9.68;;;;;;;3.93;100.00;100387.03;5013189;28;20088;-78
2024/01/06 05:11:45;;;;;;;19.67;9.52;;;;;;;3.54;100.00;100318.28;5013477;28;20037;-77
2024/01/06 05:14:11;;;;;;;13.88;7.95;;;;;;;3.58;100.00;100308.22;5013198;28;20033;-76
2024/01/06 05:16:37;;;;;;;15.98;8.55;;;;;;;4.00;100.00;100384.09;5013194;28;20117;-80
2024/01/06 05:19:02;;;;;;;13.93;8.30;;;;;;;3.67;100.00;100344.56;5013295;28;20108;-78
2024/01/06 05:21:29;;;;;;;19.13;8.85;;;;;;;3.87;100.00;100374.75;5012813;28;20030;-78
2024/01/06 05:23:54;;;;;;;18.02;8.50;;;;;;;3.85;100.00;100381.47;5013383;28;20088;-77
2024/01/06 05:26:20;;;;;;;21.00;8.32;;;;;;;3.87;100.00;100409.66;5012793;28;20483;-79
2024/01/06 05:28:45;;;;;;;13.93;6.70;;;;;;;3.84;100.00;100400.13;5012880;28;20056;-78
2024/01/06 05:31:11;;;;;;;13.45;6.50;;;;;;;3.76;100.00;100372.34;5012995;28;20029;-79
2024/01/06 05:33:36;;;;;;;13.55;6.28;;;;;;;3.89;100.00;100397.88;5012743;28;20076;-78
2024/01/06 05:36:02;;;;;;;13.25;6.03;;;;;;;3.60;100.00;100340.75;5012696;28;20032;-78
2024/01/06 05:38:27;;;;;;;10.27;5.85;;;;;;;3.97;100.00;100396.66;5011336;28;20041;-76
2024/01/06 05:40:53;;;;;;;10.57;6.07;;;;;;;3.97;100.00;100388.13;5012465;28;20152;-77
2024/01/06 05:43:18;;;;;;;10.05;6.85;;;;;;;4.07;100.00;100394.69;5011589;28;20026;-78
2024/01/06 05:45:44;;;;;;;11.90;6.80;;;;;;;4.17;100.00;100397.00;5012798;28;20511;-78
2024/01/06 05:48:10;;;;;;;12.95;7.03;;;;;;;3.98;100.00;100347.34;5012818;28;20022;-78
2024/01/06 05:50:41;;;;;;;11.88;7.43;;;;;;;4.32;100.00;100390.25;5012360;28;20052;-77
2024/01/06 05:53:07;;;;;;;12.55;6.30;;;;;;;4.31;100.00;100387.63;5012012;28;20038;-79
2024/01/06 05:55:33;;;;;;;14.02;6.65;;;;;;;4.42;100.00;100401.06;5012501;28;20053;-78
2024/01/06 05:57:59;;;;;;;11.68;6.70;;;;;;;3.91;100.00;100308.56;5012183;28;20465;-78
2024/01/06 06:00:24;;;;;;;12.90;6.18;;;;;;;4.53;100.00;100408.56;5012169;28;20030;-78
2024/01/06 06:02:50;;;;;;;15.35;7.10;;;;;;;4.63;100.00;100406.59;5012160;28;20038;-78
2024/01/06 06:05:15;;;;;;;15.63;7.38;;;;;;;4.63;100.00;100407.44;5012122;28;20026;-82
2024/01/06 06:07:42;;;;;;;16.25;8.85;;;;;;;4.45;100.00;100380.78;5011996;28;20083;-80
2024/01/06 06:10:12;;;;;;;21.23;8.88;;;;;;;4.61;100.00;100420.94;5012051;28;20404;-81
2024/01/06 06:12:38;;;;;;;17.30;7.78;;;;;;;4.56;100.00;100389.09;5012458;28;20091;-79
2024/01/06 06:15:05;;;;;;;17.65;7.25;;;;;;;4.68;100.00;100400.94;5012121;28;20103;-87
2024/01/06 06:17:31;;;;;;;16.30;7.80;;;;;;;4.68;100.00;100390.69;5012244;28;20046;-81
2024/01/06 06:19:57;;;;;;;18.33;7.50;;;;;;;4.89;100.00;100399.59;5031020;28;20025;-82
2024/01/06 06:22:25;;;;;;;15.07;7.47;;;;;;;4.54;100.00;100330.22;5031267;28;20403;-79
2024/01/06 06:24:51;;;;;;;14.73;6.93;;;;;;;4.93;100.00;100381.91;5031472;28;20679;-80
2024/01/06 06:27:17;;;;;;;15.38;7.65;;;;;;;4.72;100.00;100334.63;5031151;28;20033;-80
2024/01/06 06:29:42;;;;;;;13.75;7.03;;;;;;;4.89;100.00;100348.41;5031462;28;20025;-80
2024/01/06 06:32:08;;;;;;;13.52;7.53;;;;;;;5.27;100.00;100399.22;5031346;28;20021;-84
2024/01/06 06:34:33;;;;;;;11.88;7.00;;;;;;;5.36;100.00;100398.88;5031912;28;20033;-80
2024/01/06 06:36:59;;;;;;;21.27;11.07;;;;;;;5.19;100.00;100382.53;5031727;28;20400;-80
2024/01/06 06:39:24;;;;;;;20.33;13.65;;;;;;;5.09;100.00;100373.47;5031287;28;20053;-80
2024/01/06 06:41:50;;;;;;;21.10;11.52;;;;;;;4.90;100.00;100345.94;5031559;28;20072;-81
2024/01/06 06:44:15;;;;;;;20.92;10.38;;;;;;;5.09;100.00;100378.56;5031826;28;20096;-79
2024/01/06 06:46:41;;;;;;;13.63;9.05;;;;;;;5.11;100.00;100369.31;5031320;28;20025;-81
2024/01/06 06:49:06;;;;;;;16.08;9.43;;;;;;;5.30;100.00;100399.41;5030738;28;20037;-81
2024/01/06 06:51:32;;;;;;;18.23;9.77;;;;;;;5.26;100.00;100382.09;5031076;28;20036;-79
2024/01/06 06:53:58;;;;;;;21.05;10.50;;;;;;;5.33;100.00;100380.75;5031103;28;20033;-79
2024/01/06 06:56:23;;;;;;;15.95;8.88;;;;;;;5.23;100.00;100368.25;5031223;28;20060;-79
2024/01/06 06:58:49;;;;;;;17.05;9.35;;;;;;;5.41;100.00;100396.56;5031083;28;20461;-81
2024/01/06 07:01:15;;;;;;;16.55;8.80;;;;;;;5.49;100.00;100379.94;5030695;28;20037;-78
2024/01/06 07:03:41;;;;;;;15.70;8.27;;;;;;;5.27;100.00;100329.22;5030999;28;20076;-83
2024/01/06 07:06:07;;;;;;;20.83;9.63;;;;;;;5.63;100.00;100367.91;5030164;28;20435;-83
2024/01/06 07:08:32;;;;;;;44.67;16.15;;;;;;;5.61;100.00;100338.78;5008572;28;20543;-80
2024/01/06 07:10:57;;;;;;;27.17;13.55;;;;;;;5.62;100.00;100364.47;5008335;28;20041;-79
2024/01/06 07:13:23;;;;;;;37.53;14.40;;;;;;;5.56;100.00;100346.22;4991213;28;20096;-79
2024/01/06 07:15:48;;;;;;;37.55;27.95;;;;;;;5.64;100.00;100356.88;5008354;28;20060;-79
2024/01/06 07:18:14;;;;;;;49.10;27.60;;;;;;;5.68;100.00;100346.00;5008259;28;20046;-80
2024/01/06 07:20:40;;;;;;;31.83;12.75;;;;;;;5.89;100.00;100361.63;4991838;28;20212;-80
2024/01/06 07:23:05;;;;;;;32.35;12.07;;;;;;;5.86;100.00;100350.34;5008132;28;20468;-79
2024/01/06 07:25:32;;;;;;;42.28;13.23;;;;;;;5.91;100.00;100351.50;5008638;28;20117;-80
2024/01/06 07:27:58;;;;;;;24.13;12.10;;;;;;;6.01;100.00;100360.56;5008203;28;20503;-79
2024/01/06 07:30:24;;;;;;;27.52;13.50;;;;;;;6.09;100.00;100344.81;5008089;28;20037;-80
2024/01/06 07:32:50;;;;;;;33.72;12.57;;;;;;;5.80;100.00;100289.44;5008321;28;20416;-79
2024/01/06 07:35:16;;;;;;;25.75;12.05;;;;;;;6.18;100.00;100347.00;5008350;28;20038;-78
2024/01/06 07:37:42;;;;;;;31.98;14.70;;;;;;;6.16;100.00;100330.66;5007999;28;20060;-79
2024/01/06 07:40:08;;;;;;;28.42;16.63;;;;;;;6.13;100.00;100325.34;5009594;28;20468;-80
2024/01/06 07:42:33;;;;;;;27.23;15.77;;;;;;;6.26;100.00;100350.81;5010591;28;20030;-79
2024/01/06 07:44:59;;;;;;;24.23;15.75;;;;;;;6.21;100.00;100338.59;5010367;28;20531;-80
2024/01/06 07:47:24;;;;;;;22.80;12.80;;;;;;;6.17;100.00;100337.53;5010656;28;20109;-79
2024/01/06 07:49:50;;;;;;;23.08;13.30;;;;;;;5.92;100.00;100287.50;5009495;28;20058;-79
2024/01/06 07:52:16;;;;;;;16.65;11.13;;;;;;;6.28;100.00;100338.97;5023378;28;20052;-78
2024/01/06 07:55:01;;;;;;;19.95;10.55;;;;;;;6.32;100.00;100338.31;5026658;28;20083;-78
2024/01/06 07:57:27;;;;;;;13.35;8.73;;;;;;;6.32;100.00;100329.75;5010873;28;20068;-81
2024/01/06 07:59:53;;;;;;;13.20;8.10;;;;;;;6.26;100.00;100326.88;5027019;28;20124;-78
2024/01/06 08:02:18;;;;;;;12.90;7.85;;;;;;;6.25;100.00;100336.22;5009619;28;20184;-79
2024/01/06 08:04:44;;;;;;;15.52;8.60;;;;;;;6.20;100.00;100335.13;5027026;28;20049;-79
2024/01/06 08:07:10;;;;;;;15.20;9.18;;;;;;;5.95;100.00;100294.47;5027137;28;20026;-80
2024/01/06 08:09:35;;;;;;;17.83;9.40;;;;;;;6.20;100.00;100332.56;5008697;28;20139;-81
2024/01/06 08:12:03;;;;;;;15.32;10.07;;;;;;;6.15;100.00;100323.75;5024374;28;20622;-78
2024/01/06 08:14:28;;;;;;;17.35;9.40;;;;;;;5.98;100.00;100297.19;5026581;28;20542;-82
2024/01/06 08:16:54;;;;;;;16.65;10.07;;;;;;;5.80;100.00;100259.56;5028040;28;20112;-80
2024/01/06 08:19:20;;;;;;;16.23;11.43;;;;;;;6.17;100.00;100326.38;4997985;28;20121;-80
2024/01/06 08:21:45;;;;;;;28.63;16.08;;;;;;;6.30;100.00;100326.22;5030660;28;20112;-78
2024/01/06 08:24:11;;;;;;;35.35;23.33;;;;;;;6.25;100.00;100314.84;5030817;28;20061;-80
2024/01/06 08:26:36;;;;;;;20.15;13.13;;;;;;;6.34;100.00;100322.13;5032563;28;20116;-79
2024/01/06 08:29:02;;;;;;;22.85;11.45;;;;;;;6.42;100.00;100326.84;5031874;28;20017;-79
2024/01/06 08:31:27;;;;;;;16.40;10.52;;;;;;;6.40;100.00;100305.38;5031933;28;20068;-79
2024/01/06 08:33:53;;;;;;;19.00;11.18;;;;;;;6.23;100.00;100254.94;5033488;28;20038;-77
2024/01/06 08:36:18;;;;;;;17.10;10.88;;;;;;;6.45;100.00;100279.97;5032294;28;20103;-78
2024/01/06 08:38:44;;;;;;;16.58;10.35;;;;;;;6.53;100.00;100281.25;5033705;28;20064;-76
2024/01/06 08:41:09;;;;;;;16.38;10.25;;;;;;;6.71;100.00;100285.53;5011230;28;20041;-79
2024/01/06 08:43:34;;;;;;;18.20;10.68;;;;;;;6.83;100.00;100287.81;5011574;28;20124;-78
2024/01/06 08:46:00;;;;;;;16.13;10.75;;;;;;;6.73;100.00;100248.00;5011911;28;20520;-77
2024/01/06 08:48:26;;;;;;;15.32;10.27;;;;;;;7.21;100.00;100314.47;5011414;28;20038;-78
2024/01/06 08:50:51;;;;;;;19.02;11.55;;;;;;;7.06;100.00;100278.66;5011288;28;20062;-78
2024/01/06 08:53:17;;;;;;;19.88;10.82;;;;;;;7.33;100.00;100309.91;5011356;28;20507;-78
2024/01/06 08:55:42;;;;;;;18.73;10.48;;;;;;;7.24;100.00;100286.34;5011237;28;20046;-77
2024/01/06 08:58:09;;;;;;;17.00;10.00;;;;;;;7.22;100.00;100288.00;5011003;28;20129;-77
2024/01/06 09:00:35;;;;;;;17.40;11.75;;;;;;;7.51;100.00;100312.44;5011193;28;20124;-82
2024/01/06 09:03:01;;;;;;;36.20;23.48;;;;;;;7.49;100.00;100316.66;5011507;28;20042;-78
2024/01/06 09:05:26;;;;;;;21.55;11.98;;;;;;;7.50;100.00;100308.16;5011119;28;20190;-78
2024/01/06 09:07:52;;;;;;;13.98;11.07;;;;;;;7.36;100.00;100274.09;4994595;28;20041;-82
2024/01/06 09:10:18;;;;;;;17.85;10.07;;;;;;;7.54;100.00;100293.72;5011045;28;20077;-80
2024/01/06 09:12:44;;;;;;;17.55;10.98;;;;;;;7.59;100.00;100288.00;5027201;28;20116;-78
2024/01/06 09:15:09;;;;;;;13.98;9.82;;;;;;;7.51;100.00;100263.66;5033256;28;20029;-78
2024/01/06 09:17:35;;;;;;;13.95;9.90;;;;;;;7.68;100.00;100284.97;5032988;28;20026;-82
2024/01/06 09:20:01;;;;;;;20.92;12.10;;;;;;;7.73;100.00;100286.06;5033038;28;20116;-83
2024/01/06 09:22:27;;;;;;;19.95;11.85;;;;;;;7.73;100.00;100275.78;5031683;28;20488;-77
2024/01/06 09:24:53;;;;;;;18.25;11.30;;;;;;;7.68;100.00;100246.44;5032803;28;20418;-77
2024/01/06 09:27:19;;;;;;;21.13;13.50;;;;;;;7.64;100.00;100230.81;5032657;28;20193;-78
2024/01/06 09:29:45;;;;;;;21.17;11.48;;;;;;;7.86;100.00;100251.53;5030866;28;20065;-81
2024/01/06 09:32:10;;;;;;;19.77;10.45;;;;;;;7.99;100.00;100262.31;5032896;28;20057;-81
2024/01/06 09:34:37;;;;;;;15.90;9.70;;;;;;;8.10;100.00;100276.56;5032946;28;20568;-77
2024/01/06 09:37:02;;;;;;;15.00;10.38;;;;;;;8.14;100.00;100257.88;5032988;28;20030;-77
2024/01/06 09:39:28;;;;;;;19.10;12.48;;;;;;;8.18;100.00;100262.31;5032798;28;20037;-79
2024/01/06 09:41:53;;;;;;;20.35;13.15;;;;;;;8.19;100.00;100253.81;5032553;28;20053;-76
2024/01/06 09:44:19;;;;;;;18.70;10.60;;;;;;;7.80;100.00;100193.81;5032420;28;20385;-76
2024/01/06 09:46:44;;;;;;;21.38;11.65;;;;;;;8.24;100.00;100254.00;5032640;28;20025;-77
2024/01/06 09:49:10;;;;;;;24.52;14.57;;;;;;;8.26;100.00;100232.69;5032508;28;20029;-76
2024/01/06 09:51:40;;;;;;;17.77;11.82;;;;;;;8.31;100.00;100229.41;5032608;28;20029;-80
2024/01/06 09:54:09;;;;;;;16.23;10.77;;;;;;;8.38;100.00;100223.72;5032378;28;20083;-82
2024/01/06 09:56:36;;;;;;;17.70;11.50;;;;;;;8.48;100.00;100214.72;5031170;28;20052;-80
2024/01/06 09:59:02;;;;;;;24.17;10.77;;;;;;;8.55;100.00;100209.91;5032570;28;20452;-79
2024/01/06 10:01:27;;;;;;;20.10;10.90;;;;;;;8.48;100.00;100192.44;5032146;28;20025;-80
2024/01/06 10:03:54;;;;;;;19.35;10.38;;;;;;;8.52;100.00;100181.47;5030672;28;20087;-80
2024/01/06 10:06:20;;;;;;;16.00;10.18;;;;;;;8.74;100.00;100203.78;5009817;28;20042;-80
2024/01/06 10:08:50;;;;;;;17.80;10.80;;;;;;;8.80;100.00;100197.13;5007997;28;20041;-80
2024/01/06 10:11:15;;;;;;;24.58;9.95;;;;;;;8.78;100.00;100193.63;4990321;28;20038;-80
2024/01/06 10:13:41;;;;;;;21.92;10.55;;;;;;;8.61;100.00;100152.66;4990057;28;20141;-82
2024/01/06 10:16:07;;;;;;;21.48;11.02;;;;;;;8.85;100.00;100177.63;4990171;28;20046;-77
2024/01/06 10:18:35;;;;;;;21.08;11.23;;;;;;;8.50;100.00;100108.50;4990172;28;20154;-79
2024/01/06 10:21:04;;;;;;;22.85;11.75;;;;;;;8.67;100.00;100121.13;4989870;28;20412;-78
2024/01/06 10:23:32;;;;;;;24.75;10.75;;;;;;;8.87;100.00;100156.25;4990014;28;20204;-81
2024/01/06 10:25:57;;;;;;;21.95;10.57;;;;;;;8.53;100.00;100085.44;4989991;28;20061;-79
2024/01/06 10:28:23;;;;;;;18.25;10.50;;;;;;;8.40;100.00;100042.91;4989819;28;20030;-79
2024/01/06 10:30:55;;;;;;;22.33;10.85;;;;;;;9.13;100.00;100146.06;4989888;28;20046;-83
2024/01/06 10:33:22;;;;;;;21.90;12.43;;;;;;;8.99;100.00;100108.63;4989883;28;20659;-77
2024/01/06 10:35:49;;;;;;;20.33;10.48;;;;;;;9.17;100.00;100126.44;4973438;28;20034;-78
2024/01/06 10:38:17;;;;;;;31.60;18.23;;;;;;;9.35;100.00;100150.31;4989649;28;20307;-79
2024/01/06 10:41:09;;;;;;;21.88;11.13;;;;;;;9.46;100.00;100142.09;4973642;28;20482;-78
2024/01/06 10:43:38;;;;;;;19.50;10.35;;;;;;;9.01;100.00;100058.03;4967486;28;20121;-82
2024/01/06 10:46:04;;;;;;;18.67;10.73;;;;;;;9.46;100.00;100131.78;4989612;28;20086;-79
2024/01/06 10:48:34;;;;;;;23.40;11.52;;;;;;;9.37;100.00;100098.81;4989425;28;20100;-77
2024/01/06 10:51:07;;;;;;;25.45;16.20;;;;;;;9.56;100.00;100123.56;4989665;28;20400;-78
2024/01/06 10:53:33;;;;;;;20.35;10.55;;;;;;;9.69;100.00;100112.88;4997911;28;20109;-76
2024/01/06 10:56:01;;;;;;;24.00;16.17;;;;;;;9.66;100.00;100110.19;5008610;28;20113;-79
2024/01/06 10:58:29;;;;;;;17.63;11.15;;;;;;;9.78;100.00;100107.16;5008965;28;20083;-77
2024/01/06 11:00:56;;;;;;;17.52;9.90;;;;;;;9.81;100.00;100103.81;5008828;28;20045;-79
2024/01/06 11:03:24;;;;;;;22.85;9.40;;;;;;;9.84;100.00;100103.91;5009030;28;20088;-79
2024/01/06 11:06:11;;;;;;;31.63;13.38;;;;;;;9.75;100.00;100088.13;4942165;28;20038;-77
2024/01/06 11:08:49;;;;;;;29.48;15.88;;;;;;;9.73;100.00;100090.63;4971780;28;20050;-77